createdAt,value
2023-02-23T00:00:21.025Z,7.63
2023-02-23T00:03:33.753Z,7.62
2023-02-23T00:06:46.187Z,7.71
2023-02-23T00:09:58.924Z,7.53
2023-02-23T00:13:11.221Z,7.33
2023-02-23T00:16:24.906Z,7.12
2023-02-23T00:19:37.860Z,7.22
2023-02-23T00:22:51.455Z,7.27
2023-02-23T00:26:04.474Z,7.09
2023-02-23T00:29:22.066Z,7.21
2023-02-23T00:32:35.214Z,7.10
2023-02-23T00:35:47.817Z,7.08
2023-02-23T00:39:02.022Z,7.17
2023-02-23T00:42:15.533Z,7.11
2023-02-23T00:45:27.848Z,6.99
2023-02-23T00:48:40.449Z,7.04
2023-02-23T00:51:53.083Z,6.87
2023-02-23T00:55:13.322Z,6.74
2023-02-23T00:58:26.146Z,6.75
2023-02-23T01:01:39.118Z,6.79
2023-02-23T01:04:52.813Z,6.73
2023-02-23T01:08:09.404Z,6.65
2023-02-23T01:11:22.967Z,6.66
2023-02-23T01:14:35.818Z,6.72
2023-02-23T01:17:49.776Z,6.79
2023-02-23T01:21:03.091Z,6.75
2023-02-23T01:24:15.412Z,6.75
2023-02-23T01:27:29.293Z,6.84
2023-02-23T01:30:41.793Z,6.79
2023-02-23T01:33:58.430Z,6.83
2023-02-23T01:37:10.759Z,6.72
2023-02-23T01:40:29.866Z,6.74
2023-02-23T01:44:14.319Z,6.73
2023-02-23T01:47:27.334Z,6.81
2023-02-23T01:50:57.065Z,6.70
2023-02-23T01:54:14.512Z,6.72
2023-02-23T01:57:27.388Z,6.74
2023-02-23T02:00:40.242Z,6.81
2023-02-23T02:03:57.908Z,6.62
2023-02-23T02:07:10.883Z,6.64
2023-02-23T02:10:39.569Z,6.69
2023-02-23T02:14:13.933Z,6.59
2023-02-23T02:17:41.717Z,6.40
2023-02-23T02:21:06.061Z,6.38
2023-02-23T02:24:40.407Z,6.46
2023-02-23T02:28:30.235Z,6.32
2023-02-23T02:32:02.682Z,6.44
2023-02-23T02:35:46.988Z,6.44
2023-02-23T02:39:10.553Z,6.31
2023-02-23T02:42:30.153Z,6.40
2023-02-23T02:45:45.751Z,6.42
2023-02-23T02:49:02.662Z,6.40
2023-02-23T02:52:17.785Z,6.46
2023-02-23T02:55:34.444Z,6.57
2023-02-23T02:58:47.344Z,6.50
2023-02-23T03:02:18.570Z,6.58
2023-02-23T03:06:00.294Z,6.53
2023-02-23T03:09:39.391Z,6.69
2023-02-23T03:13:13.765Z,6.61
2023-02-23T03:17:13.288Z,6.56
2023-02-23T03:20:53.648Z,6.41
2023-02-23T03:24:30.520Z,6.59
2023-02-23T03:28:13.716Z,6.63
2023-02-23T03:31:59.605Z,6.63
2023-02-23T03:35:37.160Z,6.65
2023-02-23T03:39:15.204Z,6.68
2023-02-23T03:42:49.021Z,6.48
2023-02-23T03:46:19.972Z,6.70
2023-02-23T03:49:56.553Z,6.65
2023-02-23T03:53:27.516Z,6.62
2023-02-23T03:57:00.164Z,6.66
2023-02-23T04:00:34.336Z,6.49
2023-02-23T04:04:05.460Z,6.65
2023-02-23T04:07:37.791Z,6.57
2023-02-23T04:11:10.490Z,6.68
2023-02-23T04:14:44.821Z,6.67
2023-02-23T04:17:57.458Z,6.80
2023-02-23T04:21:09.847Z,6.82
2023-02-23T04:24:22.522Z,6.74
2023-02-23T04:27:36.123Z,6.69
2023-02-23T04:30:48.790Z,6.67
2023-02-23T04:34:01.196Z,6.60
2023-02-23T04:37:13.844Z,6.68
2023-02-23T04:40:26.545Z,6.59
2023-02-23T04:43:39.211Z,6.72
2023-02-23T04:46:51.565Z,6.67
2023-02-23T04:50:04.548Z,6.60
2023-02-23T04:53:16.869Z,6.66
2023-02-23T04:56:29.747Z,6.52
2023-02-23T04:59:42.528Z,6.57
2023-02-23T05:02:56.045Z,6.62
2023-02-23T05:06:08.357Z,6.59
2023-02-23T05:09:20.971Z,6.78
2023-02-23T05:12:33.357Z,6.67
2023-02-23T05:15:46.136Z,6.77
2023-02-23T05:18:58.515Z,6.62
2023-02-23T05:22:12.674Z,6.73
2023-02-23T05:25:25.490Z,6.62
2023-02-23T05:28:38.728Z,6.63
2023-02-23T05:31:51.205Z,6.52
2023-02-23T05:35:03.984Z,6.53
2023-02-23T05:38:16.380Z,6.58
2023-02-23T05:41:29.016Z,6.58
2023-02-23T05:44:41.377Z,6.58
2023-02-23T05:47:54.013Z,6.64
2023-02-23T05:51:11.644Z,6.69
2023-02-23T05:54:24.300Z,6.65
2023-02-23T05:57:36.673Z,6.72
2023-02-23T06:00:49.288Z,6.69
2023-02-23T06:04:02.424Z,6.79
2023-02-23T06:07:15.970Z,6.78
2023-02-23T06:10:28.610Z,6.79
2023-02-23T06:13:41.296Z,6.94
2023-02-23T06:16:53.910Z,6.84
2023-02-23T06:20:07.322Z,6.87
2023-02-23T06:23:20.062Z,6.88
2023-02-23T06:26:33.334Z,6.95
2023-02-23T06:29:45.928Z,7.06
2023-02-23T06:32:58.265Z,7.13
2023-02-23T06:36:11.001Z,7.25
2023-02-23T06:39:23.352Z,7.17
2023-02-23T06:42:36.760Z,7.12
2023-02-23T06:45:49.145Z,7.34
2023-02-23T06:49:01.945Z,7.26
2023-02-23T06:52:14.570Z,7.29
2023-02-23T06:55:27.304Z,7.43
2023-02-23T06:58:40.606Z,7.35
2023-02-23T07:01:53.290Z,7.41
2023-02-23T07:05:05.803Z,7.30
2023-02-23T07:08:18.523Z,7.37
2023-02-23T07:11:30.850Z,7.49
2023-02-23T07:14:43.500Z,7.21
2023-02-23T07:17:56.867Z,7.51
2023-02-23T07:21:09.464Z,7.45
2023-02-23T07:24:21.989Z,7.54
2023-02-23T07:27:34.975Z,7.67
2023-02-23T07:30:47.722Z,7.54
2023-02-23T07:34:00.337Z,7.45
2023-02-23T07:37:12.718Z,7.62
2023-02-23T07:40:26.233Z,7.59
2023-02-23T07:43:38.835Z,7.70
2023-02-23T07:46:53.130Z,7.82
2023-02-23T07:50:09.836Z,7.88
2023-02-23T07:53:22.434Z,7.90
2023-02-23T07:56:35.421Z,8.12
2023-02-23T07:59:48.589Z,8.15
2023-02-23T08:03:01.456Z,8.15
2023-02-23T08:06:14.101Z,8.49
2023-02-23T08:09:26.429Z,8.72
2023-02-23T08:12:39.199Z,8.59
2023-02-23T08:15:51.548Z,8.58
2023-02-23T08:19:04.264Z,8.73
2023-02-23T08:22:16.568Z,8.72
2023-02-23T08:25:31.841Z,8.70
2023-02-23T08:28:45.887Z,8.15
2023-02-23T08:31:58.699Z,8.71
2023-02-23T08:35:11.181Z,8.80
2023-02-23T08:38:23.776Z,8.95
2023-02-23T08:41:36.153Z,9.32
2023-02-23T08:44:51.573Z,9.33
2023-02-23T08:48:04.048Z,9.11
2023-02-23T08:51:16.900Z,9.47
2023-02-23T08:54:29.381Z,9.66
2023-02-23T08:57:42.020Z,9.72
2023-02-23T09:00:54.383Z,9.52
2023-02-23T09:04:06.997Z,9.85
2023-02-23T09:07:22.657Z,9.92
2023-02-23T09:10:35.791Z,9.83
2023-02-23T09:13:48.148Z,9.79
2023-02-23T09:17:00.781Z,9.67
2023-02-23T09:20:15.764Z,9.10
2023-02-23T09:23:29.500Z,9.66
2023-02-23T09:26:43.529Z,9.92
2023-02-23T09:29:57.584Z,9.88
2023-02-23T09:33:10.030Z,10.23
2023-02-23T09:36:24.225Z,9.66
2023-02-23T09:39:38.947Z,9.66
2023-02-23T09:43:02.550Z,10.25
2023-02-23T09:47:04.663Z,10.66
2023-02-23T09:50:22.670Z,9.98
2023-02-23T09:53:41.595Z,10.16
2023-02-23T09:56:56.393Z,10.63
2023-02-23T10:00:27.460Z,10.98
2023-02-23T10:03:46.771Z,10.45
2023-02-23T10:07:06.630Z,10.21
2023-02-23T10:10:38.171Z,10.69
2023-02-23T10:14:18.839Z,10.50
2023-02-23T10:18:15.998Z,10.24
2023-02-23T10:21:36.178Z,10.49
2023-02-23T10:25:01.707Z,10.93
2023-02-23T10:28:20.235Z,11.25
2023-02-23T10:31:43.829Z,10.88
2023-02-23T10:34:56.808Z,11.24
2023-02-23T10:38:16.348Z,11.53
2023-02-23T10:41:29.470Z,11.61
2023-02-23T10:44:43.551Z,11.43
2023-02-23T10:47:55.780Z,11.85
2023-02-23T10:51:19.125Z,11.93
2023-02-23T10:54:39.568Z,12.05
2023-02-23T10:58:01.827Z,12.00
2023-02-23T11:01:15.929Z,12.09
2023-02-23T11:04:33.258Z,12.50
2023-02-23T11:07:45.586Z,12.33
2023-02-23T11:11:14.650Z,11.99
2023-02-23T11:14:30.518Z,12.18
2023-02-23T11:17:43.129Z,11.85
2023-02-23T11:20:55.564Z,12.59
2023-02-23T11:24:15.481Z,12.57
2023-02-23T11:27:27.854Z,12.80
2023-02-23T11:30:42.951Z,12.68
2023-02-23T11:33:55.580Z,11.94
2023-02-23T11:37:23.134Z,12.77
2023-02-23T11:40:35.508Z,12.93
2023-02-23T11:43:52.039Z,12.96
2023-02-23T11:47:04.437Z,12.83
2023-02-23T11:50:30.335Z,12.96
2023-02-23T11:53:45.324Z,12.69
2023-02-23T11:56:58.650Z,12.30
2023-02-23T12:00:22.752Z,12.52
2023-02-23T12:03:35.399Z,12.63
2023-02-23T12:06:47.750Z,12.35
2023-02-23T12:10:26.876Z,12.27
2023-02-23T12:13:46.127Z,12.19
2023-02-23T12:17:05.331Z,12.21
2023-02-23T12:20:26.978Z,12.62
2023-02-23T12:23:39.991Z,12.42
2023-02-23T12:26:59.141Z,12.22
2023-02-23T12:30:35.748Z,11.83
2023-02-23T12:33:50.631Z,11.97
2023-02-23T12:37:18.636Z,12.65
2023-02-23T12:40:32.547Z,11.90
2023-02-23T12:43:51.628Z,12.12
2023-02-23T12:47:41.218Z,12.19
2023-02-23T12:50:55.792Z,11.88
2023-02-23T12:54:09.724Z,12.16
2023-02-23T12:57:52.265Z,12.70
2023-02-23T13:01:22.064Z,12.67
2023-02-23T13:04:47.356Z,13.02
2023-02-23T13:08:13.263Z,12.95
2023-02-23T13:11:41.557Z,13.29
2023-02-23T13:14:57.346Z,13.62
2023-02-23T13:18:45.152Z,13.59
2023-02-23T13:22:32.289Z,13.02
2023-02-23T13:25:55.621Z,12.96
2023-02-23T13:29:45.790Z,12.93
2023-02-23T13:33:02.394Z,12.76
2023-02-23T13:36:14.729Z,13.10
2023-02-23T13:39:52.907Z,13.32
2023-02-23T13:43:30.220Z,13.15
2023-02-23T13:46:59.616Z,13.20
2023-02-23T13:50:22.582Z,12.54
2023-02-23T13:53:47.095Z,12.60
2023-02-23T13:57:01.396Z,12.99
2023-02-23T14:00:20.513Z,12.74
2023-02-23T14:03:35.544Z,12.32
2023-02-23T14:07:15.280Z,12.67
2023-02-23T14:10:41.406Z,12.76
2023-02-23T14:14:01.840Z,12.57
2023-02-23T14:17:14.374Z,12.30
2023-02-23T14:20:42.999Z,12.58
2023-02-23T14:24:21.252Z,12.44
2023-02-23T14:27:41.461Z,11.92
2023-02-23T14:31:13.014Z,11.87
2023-02-23T14:34:49.545Z,11.92
2023-02-23T14:38:10.984Z,12.00
2023-02-23T14:41:24.571Z,11.87
2023-02-23T14:44:41.326Z,11.78
2023-02-23T14:47:55.872Z,11.89
2023-02-23T14:51:20.607Z,11.81
2023-02-23T14:54:37.010Z,12.07
2023-02-23T14:57:49.984Z,12.20
2023-02-23T15:01:02.356Z,12.07
2023-02-23T15:04:18.034Z,12.08
2023-02-23T15:07:39.543Z,12.08
2023-02-23T15:11:12.111Z,12.10
2023-02-23T15:14:28.586Z,11.93
2023-02-23T15:17:42.535Z,12.37
2023-02-23T15:20:54.989Z,12.23
2023-02-23T15:24:13.392Z,12.27
2023-02-23T15:27:30.150Z,11.77
2023-02-23T15:30:47.330Z,11.66
2023-02-23T15:33:59.649Z,11.69
2023-02-23T15:37:20.064Z,11.64
2023-02-23T15:40:33.815Z,11.48
2023-02-23T15:43:46.455Z,11.59
2023-02-23T15:47:00.442Z,11.28
2023-02-23T15:50:35.990Z,11.52
2023-02-23T15:53:48.736Z,11.38
2023-02-23T15:57:14.067Z,11.18
2023-02-23T16:00:40.228Z,11.29
2023-02-23T16:04:09.378Z,11.28
2023-02-23T16:07:23.597Z,11.14
2023-02-23T16:10:41.795Z,11.08
2023-02-23T16:13:54.185Z,10.92
2023-02-23T16:17:11.538Z,10.85
2023-02-23T16:20:35.101Z,10.69
2023-02-23T16:23:49.273Z,10.62
2023-02-23T16:27:02.129Z,10.61
2023-02-23T16:30:23.515Z,10.59
2023-02-23T16:33:48.568Z,10.52
2023-02-23T16:37:15.777Z,10.51
2023-02-23T16:40:28.201Z,10.47
2023-02-23T16:43:40.766Z,10.48
2023-02-23T16:47:03.565Z,10.47
2023-02-23T16:50:20.345Z,10.41
2023-02-23T16:53:33.019Z,10.31
2023-02-23T16:56:46.441Z,10.28
2023-02-23T16:59:58.908Z,10.28
2023-02-23T17:03:25.511Z,10.34
2023-02-23T17:06:38.347Z,10.35
2023-02-23T17:09:50.985Z,10.35
2023-02-23T17:13:08.251Z,10.35
2023-02-23T17:16:21.200Z,10.28
2023-02-23T17:19:33.797Z,10.20
2023-02-23T17:22:46.400Z,10.16
2023-02-23T17:25:58.969Z,10.16
2023-02-23T17:29:11.671Z,10.08
2023-02-23T17:32:24.373Z,10.07
2023-02-23T17:35:37.593Z,10.01
2023-02-23T17:38:49.933Z,9.99
2023-02-23T17:42:02.531Z,9.92
2023-02-23T17:45:14.862Z,9.94
2023-02-23T17:48:27.880Z,9.82
2023-02-23T17:51:40.520Z,9.89
2023-02-23T17:54:54.503Z,9.91
2023-02-23T17:58:06.824Z,9.72
2023-02-23T18:01:19.998Z,9.74
2023-02-23T18:04:32.858Z,9.73
2023-02-23T18:07:48.289Z,9.71
2023-02-23T18:11:01.309Z,9.73
2023-02-23T18:14:14.455Z,9.63
2023-02-23T18:17:27.144Z,9.50
2023-02-23T18:20:39.478Z,9.56
2023-02-23T18:23:52.144Z,9.65
2023-02-23T18:27:04.594Z,9.63
2023-02-23T18:30:17.295Z,9.58
2023-02-23T18:33:31.506Z,9.53
2023-02-23T18:36:44.167Z,9.46
2023-02-23T18:39:57.867Z,9.41
2023-02-23T18:43:11.119Z,9.34
2023-02-23T18:46:23.498Z,9.28
2023-02-23T18:49:37.002Z,9.16
2023-02-23T18:52:50.917Z,9.14
2023-02-23T18:56:05.716Z,8.94
2023-02-23T18:59:18.105Z,9.00
2023-02-23T19:02:30.718Z,8.96
2023-02-23T19:05:52.870Z,8.94
2023-02-23T19:09:09.760Z,8.86
2023-02-23T19:12:22.164Z,8.84
2023-02-23T19:15:35.448Z,8.80
2023-02-23T19:18:47.978Z,8.77
2023-02-23T19:22:00.580Z,8.83
2023-02-23T19:25:14.507Z,8.88
2023-02-23T19:28:27.366Z,9.10
2023-02-23T19:31:39.837Z,9.02
2023-02-23T19:34:52.580Z,9.24
2023-02-23T19:38:04.895Z,9.28
2023-02-23T19:41:20.843Z,9.40
2023-02-23T19:44:34.026Z,9.30
2023-02-23T19:47:46.805Z,9.33
2023-02-23T19:50:59.165Z,9.27
2023-02-23T19:54:11.796Z,9.19
2023-02-23T19:57:24.172Z,9.17
2023-02-23T20:00:36.796Z,9.11
2023-02-23T20:03:55.344Z,8.82
2023-02-23T20:07:09.924Z,8.66
2023-02-23T20:10:25.842Z,8.38
2023-02-23T20:13:39.139Z,8.18
2023-02-23T20:16:51.900Z,8.16
2023-02-23T20:20:06.298Z,8.15
2023-02-23T20:23:18.951Z,8.04
2023-02-23T20:26:34.269Z,8.03
2023-02-23T20:29:48.102Z,8.13
2023-02-23T20:33:02.465Z,7.99
2023-02-23T20:36:15.109Z,7.88
2023-02-23T20:39:27.515Z,7.85
2023-02-23T20:42:41.676Z,7.57
2023-02-23T20:45:54.849Z,7.54
2023-02-23T20:49:11.242Z,7.47
2023-02-23T20:52:23.658Z,7.50
2023-02-23T20:55:36.328Z,7.37
2023-02-23T20:58:48.681Z,7.40
2023-02-23T21:02:01.744Z,7.37
2023-02-23T21:05:14.566Z,7.36
2023-02-23T21:08:28.785Z,7.23
2023-02-23T21:11:41.291Z,7.18
2023-02-23T21:14:53.959Z,7.30
2023-02-23T21:18:06.561Z,7.35
2023-02-23T21:21:19.474Z,7.40
2023-02-23T21:24:34.763Z,7.29
2023-02-23T21:27:48.176Z,7.18
2023-02-23T21:31:00.543Z,7.30
2023-02-23T21:34:15.403Z,7.19
2023-02-23T21:37:27.911Z,7.19
2023-02-23T21:40:42.401Z,7.05
2023-02-23T21:43:54.772Z,7.20
2023-02-23T21:47:07.523Z,7.21
2023-02-23T21:50:20.163Z,7.31
2023-02-23T21:53:33.097Z,7.50
2023-02-23T21:56:45.378Z,7.40
2023-02-23T21:59:58.193Z,7.47
2023-02-23T22:03:10.628Z,7.48
2023-02-23T22:06:28.319Z,7.53
2023-02-23T22:09:40.715Z,7.46
2023-02-23T22:12:57.005Z,7.66
2023-02-23T22:16:09.559Z,7.63
2023-02-23T22:19:22.229Z,7.56
2023-02-23T22:22:36.270Z,7.38
2023-02-23T22:25:48.988Z,7.63
2023-02-23T22:29:01.439Z,7.53
2023-02-23T22:32:14.319Z,7.62
2023-02-23T22:35:26.752Z,7.50
2023-02-23T22:38:40.516Z,7.73
2023-02-23T22:41:52.904Z,7.78
2023-02-23T22:45:06.227Z,7.85
2023-02-23T22:48:18.520Z,7.68
2023-02-23T22:51:31.160Z,7.44
2023-02-23T22:54:45.635Z,7.40
2023-02-23T22:57:59.912Z,7.50
2023-02-23T23:01:12.391Z,7.68
2023-02-23T23:04:25.901Z,7.54
2023-02-23T23:07:38.273Z,7.51
2023-02-23T23:10:51.033Z,7.54
2023-02-23T23:14:06.953Z,7.71
2023-02-23T23:17:20.392Z,7.49
2023-02-23T23:20:32.748Z,7.52
2023-02-23T23:23:45.440Z,7.43
2023-02-23T23:27:00.275Z,7.45
2023-02-23T23:30:13.367Z,7.58
2023-02-23T23:33:26.982Z,7.57
2023-02-23T23:36:43.073Z,7.63
2023-02-23T23:39:59.317Z,7.58
2023-02-23T23:43:12.272Z,7.42
2023-02-23T23:46:26.271Z,7.52
2023-02-23T23:49:39.188Z,7.30
2023-02-23T23:52:51.811Z,7.36
2023-02-23T23:56:06.409Z,7.40
2023-02-23T23:59:21.395Z,7.68
